Flight Number: EUR2060 Duration: 9:00
Departure: St.Maarten (TNCM) at 21:30 Distance: 4007 Nm
Arrival: Munich Int'l (EDDM) at 06:30 Equipment: B777

Weather Information
Juliana Airport, Saint Maarten, Netherlands Antilles (TNCM) 18-03N 063-07W 9M Oct 19, 2018 - 02:00 PM EDT / 2018.10.19 1800 UTC
Wind: from the ENE (060 degrees) at 13 MPH (11 KT) (direction variable):0
Visibility: greater than 7 mile(s):0
Sky conditions: partly cloudy Weather: showers in the vicinity; Towering cumulus clouds observed Temperature: 86 F (30 C) Heat index: 93.4 F (34.1 C):1 Dew Point: 73 F (23 C) Relative Humidity: 66% Pressure (altimeter): 29.91 in. Hg (1013 hPa)
ob: TNCM 191800Z 06011KT 030V090 9999 VCSH SCT022TCU 30/23 Q1013 NOSIG RMK A2991 ADJ SHWRS N cycle: 18
Sunrise: 10:09 Sunset: 21:44 (UTC)

Munchen, Germany (EDDM) 48-21N 011-47E Oct 19, 2018 - 02:20 PM EDT / 2018.10.19 1820 UTC
Wind: Variable at 2 MPH (2 KT):0
Visibility: 5 mile(s):0 Temperature: 46 F (8 C) Dew Point: 44 F (7 C) Relative Humidity: 93% Pressure (altimeter): 30.21 in. Hg (1023 hPa)
ob: EDDM 191820Z VRB02KT 9000 NSC 08/07 Q1023 NOSIG cycle: 18
Sunrise: 05:42 Sunset: 16:12 (UTC)

TAF:2018/10/19 18:44 TAF EDDM 191700Z 1918/2024 VRB02KT 8000 NSC BECMG 1921/1924 2000 BCFG PROB30 TEMPO 2001/2009 0700 FG BECMG 2009/2011 7000 BKN013 BECMG 2011/2013 34006KT SCT013 BECMG 2016/2018 VRB03KT PROB30 TEMPO 2022/2024 3000 BCFG

Previous Pireps for this route
Date Aircraft Flight time Fuel used Landing rate On time
2013-02-21B7779.25231760No
2013-10-01B7779.021821500No
2013-11-03B7779.251822860No
2015-05-08B7779.041734000No
2015-06-23B7778.512001140No
2015-08-22B77710.29121897-173No
(pireps marked green are flown by you)

Route map